createdAt,value
2019-01-28T00:01:08.184Z,3.10
2019-01-28T00:03:40.588Z,3.30
2019-01-28T00:06:11.826Z,3.10
2019-01-28T00:08:41.847Z,3.30
2019-01-28T00:11:11.395Z,2.93
2019-01-28T00:13:41.033Z,2.70
2019-01-28T00:16:10.744Z,3.50
2019-01-28T00:18:41.892Z,2.73
2019-01-28T00:21:14.485Z,3.37
2019-01-28T00:23:44.035Z,3.20
2019-01-28T00:26:13.597Z,2.80
2019-01-28T00:28:43.359Z,2.73
2019-01-28T00:31:12.953Z,2.80
2019-01-28T00:33:44.020Z,2.73
2019-01-28T00:36:13.597Z,2.53
2019-01-28T00:38:43.193Z,3.10
2019-01-28T00:41:12.749Z,2.70
2019-01-28T00:43:42.365Z,2.90
2019-01-28T00:46:14.712Z,2.73
2019-01-28T00:48:44.341Z,3.00
2019-01-28T00:51:26.252Z,2.63
2019-01-28T00:53:55.829Z,2.90
2019-01-28T00:56:25.449Z,2.90
2019-01-28T00:58:55.066Z,3.00
2019-01-28T01:01:24.985Z,2.93
2019-01-28T01:03:54.613Z,3.33
2019-01-28T01:06:24.220Z,3.03
2019-01-28T01:08:53.766Z,2.80
2019-01-28T01:11:23.332Z,2.50
2019-01-28T01:13:52.908Z,2.97
2019-01-28T01:16:22.493Z,2.90
2019-01-28T01:18:52.082Z,2.80
2019-01-28T01:21:21.692Z,2.70
2019-01-28T01:23:51.242Z,2.90
2019-01-28T01:26:20.880Z,3.33
2019-01-28T01:28:50.420Z,3.03
2019-01-28T01:31:20.487Z,2.80
2019-01-28T01:33:50.043Z,2.80
2019-01-28T01:36:19.620Z,2.80
2019-01-28T01:38:49.186Z,2.50
2019-01-28T01:41:18.756Z,2.97
2019-01-28T01:43:48.343Z,3.10
2019-01-28T01:46:17.927Z,3.10
2019-01-28T01:48:47.797Z,3.10
2019-01-28T01:51:17.383Z,3.03
2019-01-28T01:53:46.936Z,2.63
2019-01-28T01:56:16.521Z,2.90
2019-01-28T01:58:46.134Z,2.63
2019-01-28T02:01:15.716Z,2.70
2019-01-28T02:03:45.304Z,2.70
2019-01-28T02:06:15.041Z,2.37
2019-01-28T02:08:44.662Z,2.50
2019-01-28T02:11:14.497Z,2.30
2019-01-28T02:13:44.375Z,2.30
2019-01-28T02:16:13.939Z,2.10
2019-01-28T02:18:43.523Z,2.63
2019-01-28T02:21:32.555Z,1.80
2019-01-28T02:24:02.427Z,2.37
2019-01-28T02:26:32.188Z,1.80
2019-01-28T02:29:02.028Z,1.90
2019-01-28T02:31:31.594Z,1.50
2019-01-28T02:34:01.176Z,1.70
2019-01-28T02:36:31.050Z,1.60
2019-01-28T02:39:19.893Z,1.70
2019-01-28T02:41:49.503Z,1.20
2019-01-28T02:44:19.079Z,1.30
2019-01-28T02:46:50.132Z,1.20
2019-01-28T02:49:20.609Z,1.30
2019-01-28T02:51:50.163Z,1.10
2019-01-28T02:54:19.748Z,0.97
2019-01-28T02:56:49.343Z,1.10
2019-01-28T02:59:19.000Z,1.10
2019-01-28T03:01:48.584Z,0.80
2019-01-28T03:04:18.542Z,0.90
2019-01-28T03:07:08.992Z,1.00
2019-01-28T03:09:39.013Z,1.00
2019-01-28T03:12:08.582Z,1.20
2019-01-28T03:14:38.136Z,0.97
2019-01-28T03:17:09.308Z,1.00
2019-01-28T03:19:39.125Z,1.00
2019-01-28T03:22:28.001Z,1.10
2019-01-28T03:24:57.592Z,0.90
2019-01-28T03:27:27.136Z,1.00
2019-01-28T03:29:56.765Z,0.83
2019-01-28T03:32:26.343Z,1.00
2019-01-28T03:34:55.922Z,0.87
2019-01-28T03:37:44.819Z,0.83
2019-01-28T03:40:18.523Z,0.90
2019-01-28T03:42:48.810Z,0.90
2019-01-28T03:45:21.606Z,0.90
2019-01-28T03:47:51.467Z,0.93
2019-01-28T03:50:21.532Z,0.90
2019-01-28T03:52:51.436Z,0.90
2019-01-28T03:55:22.746Z,0.90
2019-01-28T03:57:52.429Z,1.07
2019-01-28T04:00:25.170Z,0.80
2019-01-28T04:02:55.066Z,0.90
2019-01-28T04:05:25.080Z,0.73
2019-01-28T04:07:54.722Z,0.90
2019-01-28T04:10:25.871Z,0.77
2019-01-28T04:13:01.107Z,1.07
2019-01-28T04:15:32.528Z,0.90
2019-01-28T04:18:02.424Z,0.80
2019-01-28T04:20:32.027Z,0.90
2019-01-28T04:23:01.608Z,0.97
2019-01-28T04:25:31.187Z,0.80
2019-01-28T04:28:00.813Z,0.80
2019-01-28T04:30:30.537Z,0.80
2019-01-28T04:33:00.097Z,0.80
2019-01-28T04:35:30.222Z,0.70
2019-01-28T04:37:59.797Z,1.00
2019-01-28T04:40:29.351Z,1.00
2019-01-28T04:42:59.115Z,1.00
2019-01-28T04:45:28.708Z,0.90
2019-01-28T04:47:58.256Z,1.00
2019-01-28T04:50:27.928Z,1.17
2019-01-28T04:52:57.512Z,1.00
2019-01-28T04:55:27.090Z,0.90
2019-01-28T04:57:56.653Z,0.90
2019-01-28T05:00:32.479Z,1.10
2019-01-28T05:03:02.252Z,1.10
2019-01-28T05:05:31.847Z,1.00
2019-01-28T05:08:01.439Z,1.00
2019-01-28T05:10:31.189Z,1.00
2019-01-28T05:13:00.774Z,0.97
2019-01-28T05:15:30.316Z,1.10
2019-01-28T05:17:59.893Z,0.90
2019-01-28T05:20:29.477Z,0.97
2019-01-28T05:22:59.068Z,1.13
2019-01-28T05:25:28.720Z,1.00
2019-01-28T05:27:58.309Z,1.17
2019-01-28T05:30:28.040Z,1.03
2019-01-28T05:32:57.622Z,1.50
2019-01-28T05:35:27.455Z,1.30
2019-01-28T05:37:57.001Z,1.10
2019-01-28T05:40:28.544Z,1.30
2019-01-28T05:42:58.135Z,1.30
2019-01-28T05:45:27.697Z,1.30
2019-01-28T05:47:57.618Z,1.33
2019-01-28T05:50:29.397Z,1.10
2019-01-28T05:52:59.119Z,1.20
2019-01-28T05:55:28.718Z,1.47
2019-01-28T05:58:17.572Z,1.53
2019-01-28T06:00:47.194Z,1.53
2019-01-28T06:03:17.133Z,1.50
2019-01-28T06:05:46.890Z,1.70
2019-01-28T06:08:16.496Z,1.37
2019-01-28T06:10:46.052Z,1.73
2019-01-28T06:13:15.607Z,1.90
2019-01-28T06:15:46.747Z,1.70
2019-01-28T06:18:16.336Z,1.50
2019-01-28T06:20:45.917Z,1.80
2019-01-28T06:23:15.534Z,1.90
2019-01-28T06:25:45.176Z,2.10
2019-01-28T06:28:14.769Z,2.20
2019-01-28T06:30:44.724Z,2.00
2019-01-28T06:33:14.516Z,2.00
2019-01-28T06:35:44.242Z,2.10
2019-01-28T06:38:13.891Z,2.23
2019-01-28T06:40:43.627Z,2.67
2019-01-28T06:43:13.354Z,2.27
2019-01-28T06:45:42.983Z,2.83
2019-01-28T06:48:12.592Z,2.60
2019-01-28T06:50:42.215Z,2.47
2019-01-28T06:53:12.244Z,2.37
2019-01-28T06:55:41.797Z,2.63
2019-01-28T06:58:11.609Z,2.53
2019-01-28T07:00:41.403Z,2.63
2019-01-28T07:03:11.036Z,2.77
2019-01-28T07:05:40.599Z,2.60
2019-01-28T07:08:10.348Z,2.50
2019-01-28T07:10:39.956Z,2.80
2019-01-28T07:13:09.510Z,2.90
2019-01-28T07:15:39.472Z,2.73
2019-01-28T07:18:10.624Z,2.67
2019-01-28T07:20:40.209Z,2.67
2019-01-28T07:23:11.062Z,2.60
2019-01-28T07:25:40.619Z,2.97
2019-01-28T07:28:10.205Z,2.77
2019-01-28T07:30:42.779Z,2.40
2019-01-28T07:33:12.358Z,2.90
2019-01-28T07:35:41.948Z,2.80
2019-01-28T07:38:11.554Z,2.73
2019-01-28T07:40:41.106Z,3.13
2019-01-28T07:43:10.711Z,2.70
2019-01-28T07:45:45.558Z,2.87
2019-01-28T07:48:11.748Z,2.60
2019-01-28T07:50:41.753Z,2.60
2019-01-28T07:53:11.510Z,2.67
2019-01-28T07:55:41.081Z,2.93
2019-01-28T07:58:10.718Z,2.47
2019-01-28T08:00:40.400Z,2.60
2019-01-28T08:03:10.234Z,3.27
2019-01-28T08:05:40.031Z,2.60
2019-01-28T08:08:09.771Z,2.50
2019-01-28T08:10:40.817Z,3.13
2019-01-28T08:13:10.748Z,2.80
2019-01-28T08:15:40.520Z,2.43
2019-01-28T08:18:11.093Z,3.03
2019-01-28T08:20:40.762Z,2.80
2019-01-28T08:23:10.351Z,3.00
2019-01-28T08:25:40.052Z,2.53
2019-01-28T08:28:09.702Z,2.60
2019-01-28T08:30:39.909Z,3.20
2019-01-28T08:33:09.599Z,2.90
2019-01-28T08:35:39.414Z,2.33
2019-01-28T08:38:09.094Z,2.83
2019-01-28T08:40:38.723Z,2.93
2019-01-28T08:43:08.314Z,2.60
2019-01-28T08:45:38.300Z,3.20
2019-01-28T08:48:07.880Z,2.77
2019-01-28T08:50:40.601Z,2.60
2019-01-28T08:53:10.181Z,2.80
2019-01-28T08:55:39.781Z,3.10
2019-01-28T08:58:09.482Z,2.70
2019-01-28T09:00:40.955Z,3.20
2019-01-28T09:03:10.918Z,2.73
2019-01-28T09:05:40.539Z,2.80
2019-01-28T09:08:10.867Z,2.73
2019-01-28T09:10:40.936Z,2.90
2019-01-28T09:13:10.796Z,2.80
2019-01-28T09:15:40.728Z,2.93
2019-01-28T09:18:11.505Z,2.47
2019-01-28T09:20:42.870Z,2.60
2019-01-28T09:23:12.792Z,2.63
2019-01-28T09:25:42.440Z,2.80
2019-01-28T09:28:12.020Z,2.53
2019-01-28T09:30:41.746Z,3.00
2019-01-28T09:33:11.318Z,2.53
2019-01-28T09:35:41.108Z,2.20
2019-01-28T09:38:10.960Z,2.10
2019-01-28T09:40:40.605Z,2.40
2019-01-28T09:43:10.419Z,1.97
2019-01-28T09:45:43.457Z,2.40
2019-01-28T09:48:15.275Z,2.43
2019-01-28T09:50:45.203Z,2.30
2019-01-28T09:53:15.380Z,2.10
2019-01-28T09:55:45.062Z,1.93
2019-01-28T09:58:14.884Z,2.00
2019-01-28T10:00:47.787Z,2.23
2019-01-28T10:03:17.697Z,2.20
2019-01-28T10:05:52.948Z,2.50
2019-01-28T10:08:22.520Z,2.17
2019-01-28T10:10:52.111Z,2.10
2019-01-28T10:13:22.756Z,2.23
2019-01-28T10:15:52.443Z,2.20
2019-01-28T10:18:21.987Z,2.53
2019-01-28T10:20:51.591Z,2.30
2019-01-28T10:23:21.376Z,2.00
2019-01-28T10:25:51.118Z,2.20
2019-01-28T10:28:20.841Z,2.20
2019-01-28T10:30:50.732Z,2.03
2019-01-28T10:33:22.578Z,2.23
2019-01-28T10:35:52.200Z,2.17
2019-01-28T10:38:22.107Z,2.20
2019-01-28T10:40:51.833Z,1.90
2019-01-28T10:43:21.384Z,2.10
2019-01-28T10:45:51.150Z,2.10
2019-01-28T10:48:20.788Z,2.00
2019-01-28T10:50:50.452Z,2.27
2019-01-28T10:53:20.779Z,1.93
2019-01-28T10:55:50.404Z,1.97
2019-01-28T10:58:19.984Z,2.00
2019-01-28T11:00:50.042Z,2.00
2019-01-28T11:03:20.324Z,1.70
2019-01-28T11:05:50.875Z,2.10
2019-01-28T11:08:21.324Z,2.00
2019-01-28T11:10:51.154Z,1.90
2019-01-28T11:13:20.837Z,1.93
2019-01-28T11:15:50.404Z,1.77
2019-01-28T11:18:23.943Z,2.00
2019-01-28T11:20:53.571Z,1.80
2019-01-28T11:23:23.868Z,1.87
2019-01-28T11:25:53.409Z,1.63
2019-01-28T11:28:23.253Z,2.00
2019-01-28T11:30:57.557Z,1.60
2019-01-28T11:33:27.284Z,1.80
2019-01-28T11:36:04.766Z,1.83
2019-01-28T11:38:28.918Z,1.80
2019-01-28T11:40:58.604Z,2.10
2019-01-28T11:43:28.274Z,1.60
2019-01-28T11:46:01.066Z,1.77
2019-01-28T11:48:32.734Z,1.70
2019-01-28T11:51:08.548Z,1.70
2019-01-28T11:53:38.256Z,1.80
2019-01-28T11:56:07.925Z,2.00
2019-01-28T11:58:38.125Z,1.70
2019-01-28T12:01:09.914Z,1.90
2019-01-28T12:03:58.827Z,1.67
2019-01-28T12:06:30.206Z,1.63
2019-01-28T12:09:19.081Z,2.03
2019-01-28T12:11:48.665Z,1.90
2019-01-28T12:14:19.699Z,2.00
2019-01-28T12:16:52.207Z,2.07
2019-01-28T12:19:21.774Z,2.10
2019-01-28T12:21:51.328Z,1.83
2019-01-28T12:24:21.374Z,2.00
2019-01-28T12:26:50.970Z,2.10
2019-01-28T12:29:20.544Z,1.90
2019-01-28T12:31:50.115Z,1.93
2019-01-28T12:34:19.672Z,2.33
2019-01-28T12:36:49.442Z,2.07
2019-01-28T12:39:19.039Z,2.30
2019-01-28T12:41:48.599Z,2.13
2019-01-28T12:44:18.190Z,2.33
2019-01-28T12:46:47.801Z,2.23
2019-01-28T12:49:21.948Z,2.30
2019-01-28T12:51:50.552Z,2.10
2019-01-28T12:54:20.131Z,2.33
2019-01-28T12:56:49.710Z,2.00
2019-01-28T12:59:19.396Z,1.93
2019-01-28T13:01:49.091Z,2.00
2019-01-28T13:04:18.713Z,2.10
2019-01-28T13:06:48.271Z,1.93
2019-01-28T13:09:17.905Z,2.03
2019-01-28T13:11:47.521Z,2.10
2019-01-28T13:14:18.700Z,1.90
2019-01-28T13:16:48.516Z,2.50
2019-01-28T13:19:18.665Z,2.10
2019-01-28T13:21:51.349Z,2.43
2019-01-28T13:24:21.080Z,2.30
2019-01-28T13:26:50.669Z,2.10
2019-01-28T13:29:20.244Z,2.10
2019-01-28T13:31:49.820Z,2.20
2019-01-28T13:34:19.446Z,1.90
2019-01-28T13:36:51.661Z,2.00
2019-01-28T13:39:21.161Z,2.23
2019-01-28T13:41:50.796Z,2.33
2019-01-28T13:44:20.520Z,2.37
2019-01-28T13:46:50.122Z,2.20
2019-01-28T13:49:19.698Z,2.30
2019-01-28T13:51:49.457Z,2.40
2019-01-28T13:54:19.236Z,2.30
2019-01-28T13:56:48.789Z,2.03
2019-01-28T13:59:18.973Z,2.43
2019-01-28T14:01:48.988Z,2.30
2019-01-28T14:04:18.634Z,1.90
2019-01-28T14:06:48.906Z,2.40
2019-01-28T14:09:18.521Z,2.33
2019-01-28T14:11:49.682Z,2.20
2019-01-28T14:14:19.266Z,2.47
2019-01-28T14:16:49.101Z,2.43
2019-01-28T14:19:18.747Z,2.20
2019-01-28T14:21:48.340Z,2.40
2019-01-28T14:24:17.910Z,2.63
2019-01-28T14:26:50.635Z,2.73
2019-01-28T14:29:20.192Z,2.47
2019-01-28T14:31:49.793Z,2.30
2019-01-28T14:34:20.869Z,2.60
2019-01-28T14:36:50.468Z,2.30
2019-01-28T14:39:20.049Z,2.60
2019-01-28T14:41:49.634Z,2.43
2019-01-28T14:44:19.184Z,2.60
2019-01-28T14:46:48.820Z,2.50
2019-01-28T14:49:18.377Z,2.43
2019-01-28T14:51:47.932Z,2.50
2019-01-28T14:54:17.844Z,2.40
2019-01-28T14:56:47.471Z,2.70
2019-01-28T14:59:19.845Z,2.30
2019-01-28T15:01:49.461Z,2.57
2019-01-28T15:04:19.038Z,2.57
2019-01-28T15:06:48.689Z,2.30
2019-01-28T15:09:18.400Z,2.40
2019-01-28T15:11:48.141Z,2.20
2019-01-28T15:14:17.732Z,2.20
2019-01-28T15:16:47.335Z,1.97
2019-01-28T15:19:16.933Z,2.10
2019-01-28T15:21:46.512Z,2.20
2019-01-28T15:24:16.144Z,2.10
2019-01-28T15:26:45.914Z,2.20
2019-01-28T15:29:15.633Z,2.13
2019-01-28T15:31:45.210Z,1.97
2019-01-28T15:34:14.924Z,2.37
2019-01-28T15:37:03.844Z,2.17
2019-01-28T15:39:33.402Z,2.10
2019-01-28T15:42:03.044Z,1.93
2019-01-28T15:44:32.650Z,2.20
2019-01-28T15:47:02.264Z,2.30
2019-01-28T15:49:31.846Z,2.50
2019-01-28T15:52:01.652Z,2.40
2019-01-28T15:54:31.243Z,2.10
2019-01-28T15:57:00.802Z,2.20
2019-01-28T15:59:30.388Z,2.50
2019-01-28T16:02:02.933Z,2.50
2019-01-28T16:04:32.585Z,2.37
2019-01-28T16:07:02.189Z,2.50
2019-01-28T16:09:31.769Z,2.67
2019-01-28T16:12:01.342Z,2.30
2019-01-28T16:14:30.967Z,2.00
2019-01-28T16:17:00.527Z,2.57
2019-01-28T16:19:30.128Z,2.47
2019-01-28T16:21:59.683Z,2.50
2019-01-28T16:24:29.113Z,2.20
2019-01-28T16:26:58.693Z,2.60
2019-01-28T16:29:28.299Z,2.63
2019-01-28T16:31:57.910Z,2.60
2019-01-28T16:34:27.415Z,2.53
2019-01-28T16:36:57.008Z,2.60
2019-01-28T16:39:26.572Z,2.40
2019-01-28T16:41:56.124Z,2.50
2019-01-28T16:44:25.714Z,2.60
2019-01-28T16:46:55.305Z,2.73
2019-01-28T16:49:24.939Z,2.80
2019-01-28T16:51:54.992Z,2.73
2019-01-28T16:54:30.524Z,2.90
2019-01-28T16:57:01.068Z,2.60
2019-01-28T16:59:30.653Z,3.10
2019-01-28T17:02:00.279Z,2.87
2019-01-28T17:04:29.891Z,2.90
2019-01-28T17:06:59.475Z,2.87
2019-01-28T17:09:29.029Z,3.10
2019-01-28T17:11:58.640Z,2.90
2019-01-28T17:14:28.193Z,2.80
2019-01-28T17:16:57.747Z,3.23
2019-01-28T17:19:27.360Z,3.57
2019-01-28T17:21:58.444Z,3.63
2019-01-28T17:24:28.038Z,3.30
2019-01-28T17:26:57.613Z,2.80
2019-01-28T17:29:28.805Z,3.50
2019-01-28T17:31:58.367Z,3.30
2019-01-28T17:34:27.959Z,2.97
2019-01-28T17:36:57.515Z,2.97
2019-01-28T17:39:27.098Z,3.03
2019-01-28T17:41:56.723Z,2.97
2019-01-28T17:44:26.268Z,3.20
2019-01-28T17:46:55.896Z,3.00
2019-01-28T17:49:26.996Z,2.90
2019-01-28T17:51:56.610Z,2.63
2019-01-28T17:54:26.195Z,2.77
2019-01-28T17:56:56.161Z,2.73
2019-01-28T17:59:26.110Z,3.00
2019-01-28T18:01:55.684Z,2.77
2019-01-28T18:04:25.250Z,2.70
2019-01-28T18:06:54.852Z,2.80
2019-01-28T18:09:24.477Z,3.13
2019-01-28T18:11:55.639Z,2.80
2019-01-28T18:14:25.226Z,3.13
2019-01-28T18:16:54.869Z,3.10
2019-01-28T18:19:24.506Z,3.30
2019-01-28T18:21:54.065Z,2.90
2019-01-28T18:24:23.658Z,3.10
2019-01-28T18:26:53.256Z,3.23
2019-01-28T18:29:22.818Z,3.30
2019-01-28T18:31:52.373Z,2.97
2019-01-28T18:34:21.955Z,3.00
2019-01-28T18:36:51.610Z,3.03
2019-01-28T18:39:21.361Z,3.23
2019-01-28T18:41:50.988Z,3.27
2019-01-28T18:44:20.407Z,2.77
2019-01-28T18:46:49.997Z,2.80
2019-01-28T18:49:20.649Z,3.00
2019-01-28T18:51:50.243Z,2.40
2019-01-28T18:54:19.893Z,2.90
2019-01-28T18:56:49.963Z,3.20
2019-01-28T18:59:19.569Z,2.83
2019-01-28T19:01:49.180Z,2.90
2019-01-28T19:04:19.136Z,3.20
2019-01-28T19:06:50.280Z,2.83
2019-01-28T19:09:21.494Z,2.80
2019-01-28T19:11:52.709Z,2.60
2019-01-28T19:14:23.888Z,2.33
2019-01-28T19:16:55.027Z,2.57
2019-01-28T19:22:14.445Z,3.00
2019-01-28T19:24:44.024Z,2.67
2019-01-28T19:27:13.577Z,2.80
2019-01-28T19:29:43.508Z,2.73
2019-01-28T19:32:13.093Z,2.47
2019-01-28T19:34:42.652Z,2.60
2019-01-28T19:37:12.464Z,2.57
2019-01-28T19:39:42.044Z,2.30
2019-01-28T19:42:11.606Z,2.90
2019-01-28T19:44:41.218Z,2.33
2019-01-28T19:47:16.863Z,2.20
2019-01-28T19:49:46.440Z,2.77
2019-01-28T19:52:16.049Z,2.67
2019-01-28T19:54:45.632Z,2.60
2019-01-28T19:57:15.190Z,2.60
2019-01-28T19:59:44.812Z,2.30
2019-01-28T20:02:15.331Z,2.30
2019-01-28T20:04:44.895Z,2.50
2019-01-28T20:07:14.472Z,2.63
2019-01-28T20:09:44.022Z,2.10
2019-01-28T20:12:16.873Z,2.53
2019-01-28T20:14:46.469Z,2.40
2019-01-28T20:17:16.027Z,1.97
2019-01-28T20:19:45.616Z,2.23
2019-01-28T20:22:15.232Z,2.30
2019-01-28T20:24:44.811Z,2.30
2019-01-28T20:27:14.453Z,2.50
2019-01-28T20:29:44.085Z,2.40
2019-01-28T20:32:13.628Z,2.70
2019-01-28T20:34:43.724Z,3.00
2019-01-28T20:37:13.393Z,2.30
2019-01-28T20:39:42.951Z,2.73
2019-01-28T20:42:12.532Z,2.10
2019-01-28T20:44:43.627Z,2.60
2019-01-28T20:47:13.266Z,2.50
2019-01-28T20:49:42.852Z,2.40
2019-01-28T20:52:13.632Z,2.20
2019-01-28T20:54:43.391Z,2.20
2019-01-28T20:57:12.929Z,2.23
2019-01-28T20:59:42.528Z,2.23
2019-01-28T21:02:12.151Z,2.50
2019-01-28T21:04:43.010Z,2.43
2019-01-28T21:07:12.649Z,2.43
2019-01-28T21:09:42.235Z,2.30
2019-01-28T21:12:11.780Z,2.20
2019-01-28T21:14:41.416Z,2.03
2019-01-28T21:17:10.982Z,1.93
2019-01-28T21:19:40.535Z,1.90
2019-01-28T21:22:10.140Z,2.30
2019-01-28T21:24:39.722Z,2.03
2019-01-28T21:27:09.314Z,2.50
2019-01-28T21:29:39.295Z,2.30
2019-01-28T21:32:08.856Z,2.20
2019-01-28T21:34:38.441Z,2.20
2019-01-28T21:37:09.663Z,2.00
2019-01-28T21:39:39.211Z,2.27
2019-01-28T21:42:08.839Z,2.10
2019-01-28T21:44:38.599Z,2.40
2019-01-28T21:47:08.587Z,2.13
2019-01-28T21:49:38.178Z,2.00
2019-01-28T21:52:07.917Z,2.40
2019-01-28T21:54:37.499Z,2.47
2019-01-28T21:57:07.221Z,2.07
2019-01-28T21:59:36.808Z,1.97
2019-01-28T22:02:06.540Z,2.10
2019-01-28T22:04:36.131Z,2.53
2019-01-28T22:07:19.156Z,2.57
2019-01-28T22:09:48.736Z,2.40
2019-01-28T22:12:18.300Z,2.20
2019-01-28T22:14:47.879Z,1.97
2019-01-28T22:17:17.479Z,1.87
2019-01-28T22:19:52.861Z,2.30
2019-01-28T22:22:22.466Z,2.20
2019-01-28T22:24:53.633Z,1.97
2019-01-28T22:27:23.260Z,1.90
2019-01-28T22:29:53.094Z,2.30
2019-01-28T22:32:22.676Z,2.03
2019-01-28T22:34:52.232Z,2.30
2019-01-28T22:37:21.858Z,2.30
2019-01-28T22:39:51.417Z,1.87
2019-01-28T22:42:23.142Z,2.50
2019-01-28T22:44:52.752Z,2.40
2019-01-28T22:47:22.332Z,2.17
2019-01-28T22:49:52.067Z,2.47
2019-01-28T22:52:23.184Z,2.53
2019-01-28T22:54:52.761Z,2.40
2019-01-28T22:57:22.323Z,2.30
2019-01-28T22:59:54.741Z,2.20
2019-01-28T23:02:24.303Z,2.10
2019-01-28T23:04:53.862Z,2.40
2019-01-28T23:07:23.517Z,2.30
2019-01-28T23:09:54.601Z,2.07
2019-01-28T23:12:24.186Z,2.50
2019-01-28T23:14:54.122Z,2.43
2019-01-28T23:17:23.560Z,2.30
2019-01-28T23:19:53.137Z,2.40
2019-01-28T23:22:22.897Z,2.10
2019-01-28T23:24:52.449Z,2.40
2019-01-28T23:27:22.028Z,2.37
2019-01-28T23:29:51.635Z,2.20
2019-01-28T23:32:21.219Z,2.40
2019-01-28T23:34:50.772Z,2.37
2019-01-28T23:37:20.407Z,2.50
2019-01-28T23:39:49.960Z,2.47
2019-01-28T23:42:19.552Z,2.40
2019-01-28T23:44:49.181Z,2.70
2019-01-28T23:47:20.252Z,2.50
2019-01-28T23:49:49.828Z,2.60
2019-01-28T23:52:24.726Z,2.40
2019-01-28T23:54:50.801Z,2.60
2019-01-28T23:57:20.365Z,2.50
2019-01-28T23:59:49.971Z,2.87
